Time;durP1;ratioP1;P1;durP2;ratioP2;P2;SDS_P1;SDS_P2;PMS_P1;PMS_P2;Temp;Humidity;BMP_temperature;BMP_pressure;BME280_temperature;BME280_humidity;BME280_pressure;Samples;Min_cycle;Max_cycle;Signal;HPM_P1;HPM_P2
2021/03/11 17:58:53;;;;;;;14.82;4.60;;;8.50;99.90;;;;;;4983725;28;20212;-84
2021/03/11 19:22:55;;;;;;;12.32;3.92;;;8.60;99.90;;;;;;4899978;29;20370;-86
2021/03/11 19:25:23;;;;;;;11.35;3.53;;;8.60;99.90;;;;;;4905180;29;20221;-69
2021/03/11 19:27:51;;;;;;;16.77;5.13;;;8.70;99.90;;;;;;4949595;28;20206;-68
2021/03/11 19:30:21;;;;;;;17.13;3.38;;;8.80;99.90;;;;;;4953945;28;20234;-68
2021/03/11 19:32:49;;;;;;;8.30;3.15;;;8.80;99.90;;;;;;4956674;28;20218;-68
2021/03/11 19:35:16;;;;;;;7.10;3.55;;;8.80;99.90;;;;;;4960096;28;20214;-69
2021/03/11 19:37:43;;;;;;;11.30;4.65;;;8.70;99.90;;;;;;4965001;28;20210;-67
2021/03/11 19:40:13;;;;;;;12.05;4.90;;;8.50;99.90;;;;;;4959831;28;20204;-68
2021/03/11 19:42:40;;;;;;;10.48;5.00;;;8.50;99.90;;;;;;4956453;28;20255;-69
2021/03/11 19:45:08;;;;;;;15.68;3.92;;;8.50;99.90;;;;;;4955399;28;20534;-67
2021/03/11 19:47:35;;;;;;;11.80;3.58;;;8.50;99.90;;;;;;4957473;28;20643;-68
2021/03/11 19:50:03;;;;;;;11.13;2.33;;;8.60;99.90;;;;;;4953841;28;20218;-68
2021/03/11 19:52:30;;;;;;;6.80;2.25;;;8.40;99.90;;;;;;4959930;28;20281;-68
2021/03/11 19:54:56;;;;;;;6.15;2.05;;;8.20;99.90;;;;;;4969390;28;20218;-68
2021/03/11 19:57:25;;;;;;;9.55;2.55;;;7.80;99.90;;;;;;4968510;28;20209;-68
2021/03/11 19:59:51;;;;;;;9.25;2.92;;;7.50;99.90;;;;;;4968727;28;20211;-69
2021/03/11 20:02:18;;;;;;;5.25;2.10;;;7.20;99.90;;;;;;4964789;28;20223;-69
2021/03/11 20:04:45;;;;;;;3.40;1.55;;;7.00;99.90;;;;;;4966801;28;20212;-68
2021/03/11 20:07:12;;;;;;;4.05;1.95;;;7.00;99.90;;;;;;4964268;28;20669;-68
2021/03/11 20:09:39;;;;;;;2.50;1.42;;;6.90;99.90;;;;;;4968753;28;20210;-68
2021/03/11 20:12:06;;;;;;;3.67;1.90;;;6.90;99.90;;;;;;4967131;28;20246;-68
2021/03/11 20:14:34;;;;;;;7.22;1.65;;;6.90;99.90;;;;;;4964156;28;20203;-68
2021/03/11 20:17:01;;;;;;;5.95;1.85;;;6.90;99.90;;;;;;4958013;28;20335;-69
2021/03/11 20:19:27;;;;;;;7.72;2.60;;;6.90;99.90;;;;;;4961198;28;20306;-68
2021/03/11 20:21:54;;;;;;;5.40;2.05;;;6.90;99.90;;;;;;4955966;28;20219;-67
2021/03/11 20:24:22;;;;;;;5.30;2.00;;;6.80;99.90;;;;;;4957662;28;20210;-68
2021/03/11 20:26:49;;;;;;;9.70;4.40;;;6.80;99.90;;;;;;4966318;28;20284;-67
2021/03/11 20:29:15;;;;;;;4.60;2.20;;;6.90;99.90;;;;;;4966796;28;20662;-68
2021/03/11 20:31:43;;;;;;;8.57;4.40;;;6.70;99.90;;;;;;4969986;28;20261;-68
2021/03/11 20:34:10;;;;;;;4.20;2.85;;;6.70;99.90;;;;;;4968377;28;20212;-68
2021/03/11 20:36:37;;;;;;;6.47;3.55;;;6.80;99.90;;;;;;4962161;28;20216;-68
2021/03/11 20:39:04;;;;;;;6.35;4.20;;;6.80;99.90;;;;;;4967970;28;20254;-68
2021/03/11 20:41:31;;;;;;;8.45;5.07;;;6.90;99.90;;;;;;4966434;28;20200;-68
2021/03/11 20:43:58;;;;;;;9.93;4.15;;;6.90;99.90;;;;;;4963939;28;20207;-68
2021/03/11 20:46:25;;;;;;;9.70;5.35;;;7.00;99.90;;;;;;4969001;28;20581;-68
2021/03/11 20:48:52;;;;;;;16.48;9.82;;;7.00;99.90;;;;;;4966489;28;20271;-68
2021/03/11 20:51:19;;;;;;;8.55;5.30;;;7.00;99.90;;;;;;4970311;28;20223;-68
2021/03/11 20:53:46;;;;;;;9.90;5.22;;;7.00;99.90;;;;;;4963571;28;20248;-68
2021/03/11 20:56:12;;;;;;;7.78;6.15;;;7.00;99.90;;;;;;4961251;28;20201;-68
2021/03/11 20:58:39;;;;;;;10.43;4.35;;;6.90;99.90;;;;;;4970886;28;20657;-68
2021/03/11 21:01:05;;;;;;;12.63;5.32;;;7.00;99.90;;;;;;4970440;28;20209;-68
2021/03/11 21:03:32;;;;;;;13.10;8.40;;;7.10;99.90;;;;;;4968161;28;20224;-67
2021/03/11 21:06:00;;;;;;;12.55;8.13;;;7.10;99.90;;;;;;4969580;28;20300;-67
2021/03/11 21:08:26;;;;;;;11.88;5.05;;;7.20;99.90;;;;;;4975559;28;20212;-68
2021/03/11 21:10:53;;;;;;;8.73;4.78;;;7.20;99.90;;;;;;4963261;28;20714;-67
2021/03/11 21:13:19;;;;;;;11.80;5.25;;;7.30;99.90;;;;;;4970434;28;20224;-67
2021/03/11 21:15:46;;;;;;;9.60;3.95;;;7.30;99.90;;;;;;4960238;28;20222;-68
2021/03/11 21:18:13;;;;;;;9.82;4.15;;;7.30;99.90;;;;;;4968690;28;20588;-68
2021/03/11 21:20:39;;;;;;;12.60;4.20;;;7.30;99.90;;;;;;4974111;28;20208;-68
2021/03/11 21:23:07;;;;;;;9.18;5.15;;;7.40;99.90;;;;;;4973925;28;20232;-68
2021/03/11 21:25:33;;;;;;;14.48;3.60;;;7.40;99.90;;;;;;4965573;28;20227;-67
2021/03/11 21:28:00;;;;;;;13.05;4.72;;;7.50;99.90;;;;;;4967853;28;20217;-67
2021/03/11 21:30:27;;;;;;;9.63;3.58;;;7.60;99.90;;;;;;4973880;28;20225;-66
2021/03/11 21:32:54;;;;;;;12.27;3.70;;;7.60;99.90;;;;;;4974751;28;20632;-68
2021/03/11 21:35:22;;;;;;;8.25;3.70;;;7.70;99.90;;;;;;4963018;28;20628;-67
2021/03/11 21:37:49;;;;;;;6.72;2.08;;;7.80;99.90;;;;;;4962642;28;20275;-67
2021/03/11 21:40:20;;;;;;;6.43;1.77;;;7.80;99.90;;;;;;4961017;28;20207;-70
2021/03/11 21:42:48;;;;;;;5.35;2.25;;;7.70;99.90;;;;;;4969947;28;20238;-70
2021/03/11 21:45:16;;;;;;;3.75;2.00;;;7.70;99.90;;;;;;4964765;28;20212;-68
2021/03/11 21:47:43;;;;;;;7.00;3.90;;;7.70;99.90;;;;;;4963946;28;20209;-69
2021/03/11 21:50:12;;;;;;;4.90;2.22;;;7.60;99.90;;;;;;4969044;28;20660;-68
2021/03/11 21:52:39;;;;;;;4.97;1.27;;;7.40;99.90;;;;;;4967875;28;20250;-70
2021/03/11 21:55:08;;;;;;;6.85;2.60;;;7.40;99.90;;;;;;4968811;28;20212;-69
2021/03/11 21:57:36;;;;;;;3.97;1.85;;;7.30;99.90;;;;;;4965687;28;20207;-68
2021/03/11 22:00:06;;;;;;;7.65;2.03;;;7.30;99.90;;;;;;4969669;28;20217;-69
2021/03/11 22:02:32;;;;;;;7.18;1.80;;;7.20;99.90;;;;;;4959041;28;20725;-71
2021/03/11 22:04:59;;;;;;;6.18;1.42;;;7.10;99.90;;;;;;4965323;28;20203;-71
2021/03/11 22:07:26;;;;;;;7.60;1.88;;;7.00;99.90;;;;;;4971814;28;20223;-73
2021/03/11 22:09:52;;;;;;;4.25;1.90;;;6.90;99.90;;;;;;4965368;28;20854;-72
2021/03/11 22:12:19;;;;;;;3.70;2.30;;;6.80;99.90;;;;;;4986006;23;21431;-67
2021/03/11 22:14:46;;;;;;;1.27;0.90;;;6.80;99.90;;;;;;4964054;28;20578;-67
2021/03/11 22:17:13;;;;;;;4.57;1.30;;;6.80;99.90;;;;;;4962318;28;20204;-67
2021/03/11 22:19:39;;;;;;;3.30;1.20;;;6.70;99.90;;;;;;4968190;28;20629;-71
2021/03/11 22:22:06;;;;;;;6.63;1.42;;;6.70;99.90;;;;;;4968933;28;20293;-70
2021/03/11 22:24:33;;;;;;;2.55;1.00;;;6.70;99.90;;;;;;4976810;28;20215;-68
2021/03/11 22:26:59;;;;;;;1.20;0.80;;;6.70;99.90;;;;;;4968816;28;20203;-70
2021/03/11 22:29:26;;;;;;;1.38;0.90;;;6.70;99.90;;;;;;4969560;28;20664;-71
2021/03/11 22:31:53;;;;;;;1.45;0.95;;;6.60;99.90;;;;;;4976584;28;20236;-69
2021/03/11 22:34:21;;;;;;;4.75;1.67;;;6.60;99.90;;;;;;4969243;28;20201;-68
2021/03/11 22:36:47;;;;;;;2.30;1.33;;;6.60;99.90;;;;;;4970257;28;20257;-67
2021/03/11 22:39:14;;;;;;;2.97;1.42;;;6.50;99.90;;;;;;4978879;28;20206;-67
2021/03/11 22:41:41;;;;;;;2.50;1.90;;;6.40;99.90;;;;;;4981908;28;20201;-70
2021/03/11 22:44:08;;;;;;;4.45;1.85;;;6.40;99.90;;;;;;4988810;28;20236;-70
2021/03/11 22:46:35;;;;;;;2.22;1.27;;;6.40;99.90;;;;;;4977717;28;20722;-70
2021/03/11 22:49:03;;;;;;;3.00;1.20;;;6.30;99.90;;;;;;4988291;28;20207;-81
2021/03/11 22:51:32;;;;;;;3.25;1.60;;;6.30;99.90;;;;;;4992921;28;20218;-84
2021/03/11 22:53:59;;;;;;;6.43;2.28;;;6.30;99.90;;;;;;4992297;28;20260;-83
2021/03/11 22:56:26;;;;;;;8.73;1.90;;;6.20;99.90;;;;;;4985770;28;20305;-84
2021/03/11 22:58:53;;;;;;;2.45;1.80;;;6.20;99.90;;;;;;4984169;28;20266;-84
2021/03/11 23:01:19;;;;;;;2.72;1.63;;;6.20;99.90;;;;;;4994812;28;20195;-82
2021/03/11 23:03:46;;;;;;;2.65;1.60;;;6.20;99.90;;;;;;4994913;28;20230;-82
2021/03/11 23:06:13;;;;;;;2.55;1.48;;;6.20;99.90;;;;;;5000321;28;20246;-82
2021/03/11 23:08:40;;;;;;;3.45;2.20;;;6.20;99.90;;;;;;4999863;28;20251;-83
2021/03/11 23:11:09;;;;;;;6.82;1.95;;;6.20;99.90;;;;;;4997352;28;20225;-82
2021/03/11 23:13:37;;;;;;;3.10;1.95;;;6.20;99.90;;;;;;4998362;28;20275;-83
2021/03/11 23:16:06;;;;;;;6.68;3.03;;;6.20;99.90;;;;;;5004258;28;20262;-85
2021/03/11 23:18:33;;;;;;;4.05;3.17;;;6.30;99.90;;;;;;4997162;28;20233;-84
2021/03/11 23:21:04;;;;;;;9.20;2.70;;;6.30;99.90;;;;;;4992111;28;20206;-84
2021/03/11 23:23:35;;;;;;;5.72;2.65;;;6.30;99.90;;;;;;4988618;28;20231;-84
2021/03/11 23:26:02;;;;;;;6.07;3.15;;;6.40;99.90;;;;;;4982745;28;20228;-83
2021/03/11 23:28:29;;;;;;;4.55;2.03;;;6.40;99.90;;;;;;4994651;28;20216;-83
2021/03/11 23:30:56;;;;;;;3.28;2.13;;;6.50;99.90;;;;;;4967041;28;20254;-85
2021/03/11 23:33:23;;;;;;;7.13;2.00;;;6.50;99.90;;;;;;4998142;28;20231;-86
2021/03/11 23:35:51;;;;;;;6.45;2.13;;;6.50;99.90;;;;;;4978935;28;20270;-84
2021/03/11 23:38:18;;;;;;;5.93;2.03;;;6.60;99.90;;;;;;4985654;28;20202;-84
2021/03/11 23:40:46;;;;;;;5.43;2.17;;;6.60;99.90;;;;;;4981121;28;20296;-87
2021/03/11 23:43:14;;;;;;;4.72;2.10;;;6.60;99.90;;;;;;4986008;28;20314;-84
2021/03/11 23:45:42;;;;;;;5.78;2.55;;;6.60;99.90;;;;;;4983653;28;20252;-86
2021/03/11 23:48:10;;;;;;;7.30;2.47;;;6.70;99.90;;;;;;4986765;28;20206;-85
2021/03/11 23:50:39;;;;;;;4.72;2.53;;;6.70;99.90;;;;;;4984106;28;20226;-84
2021/03/11 23:53:06;;;;;;;6.03;3.08;;;6.80;99.90;;;;;;4992032;28;20226;-84
2021/03/11 23:55:33;;;;;;;6.57;2.92;;;6.80;99.90;;;;;;4985243;28;20272;-84
2021/03/11 23:58:01;;;;;;;4.18;1.98;;;6.60;99.90;;;;;;4984248;28;20202;-83
